Station: Hobart  

  Atmospheric Gas Attenuation - ITU Rec 676-11   ----------------- dB/100km -----------------
Date Time Temp RH % AH g/m3 Dew Point Wind Direction Speed kph Gust kph Barometer mB Rainfall Since 9am 24GHz 47GHz 76GHz 122GHz 134GHz 241GHz
08/05 12:30 13.1 59 6.73 5.3 15 30 1015.2 0 15.6 23.2 32.9 86.0 75.3 257.6
08/05 12:20 13.4 58 6.74 5.3 11 17 1015.2 0 15.6 23.2 32.8 85.8 75.2 257.0
08/05 12:10 13.3 57 6.59 5 20 26 1015.1 0 15.3 23.0 32.3 84.4 73.4 250.8
08/05 12:00 13.1 57 6.5 4.8 22 39 1015 0 15.1 22.9 32.0 83.7 72.5 247.5
08/05 11:50 13.5 56 6.55 4.9 17 22 1015.1 0 15.2 22.8 32.1 83.8 72.7 248.5
08/05 11:40 13 58 6.58 4.9 22 28 1015.1 0 15.3 23.0 32.4 84.6 73.6 251.3
08/05 11:30 12.7 57 6.35 4.4 20 35 1014.9 0 14.8 22.7 31.6 82.6 71.0 242.3
08/05 11:20 12.6 59 6.53 4.8 19 28 1014.9 0 15.2 23.0 32.4 84.5 73.3 250.4
08/05 11:10 12.6 59 6.53 4.8 15 17 1014.9 0 15.2 23.0 32.4 84.5 73.3 250.4
08/05 11:00 12.3 60 6.52 4.8 24 41 1014.6 0 15.2 23.1 32.4 84.7 73.4 250.8
08/05 10:50 12.3 59 6.41 4.5 30 39 1014.5 0 15.0 22.9 32.0 83.6 72.1 246.0
08/05 10:40 12.8 58 6.5 4.8 20 30 1014.5 0 15.2 22.9 32.1 84.0 72.7 248.4
08/05 10:30 12.4 58 6.34 4.4 24 37 1014.3 0 14.8 22.8 31.7 82.8 71.1 242.6
08/05 10:20 12.5 57 6.27 4.2 22 28 1014.2 0 14.7 22.6 31.4 82.0 70.1 239.3
08/05 10:10 12.7 58 6.46 4.7 13 19 1014.1 0 15.1 22.9 32.0 83.7 72.3 246.9
08/05 10:00 12.5 59 6.49 4.7 19 44 1013.9 0 15.1 23.0 32.2 84.1 72.8 248.7
08/05 09:50 12.2 60 6.48 4.7 9 11 1014.1 0 15.1 23.0 32.3 84.4 73.0 249.3
08/05 09:40 11.9 61 6.46 4.6 15 20 1014.2 0 15.1 23.1 32.3 84.5 73.0 249.4
08/05 09:30 11.8 60 6.32 4.3 13 32 1013.9 0 14.8 22.9 31.8 83.2 71.4 243.5
08/05 09:20 12.2 59 6.37 4.4 13 17 1013.6 0 14.9 22.8 31.9 83.2 71.6 244.4
08/05 09:10 11.8 59 6.21 4.1 19 28 1013.3 0 14.6 22.7 31.4 82.0 70.0 238.6
08/05 09:00 11.7 61 6.38 4.4 15 37 1013.4 0 14.9 23.0 32.1 83.8 72.2 246.3
08/05 08:50 11.3 63 6.43 4.5 11 15 1013.1 2.8 15.1 23.1 32.4 84.7 73.1 249.7
08/05 08:40 11.2 62 6.29 4.2 20 26 1013 2.8 14.8 23.0 31.9 83.4 71.5 243.8
08/05 08:30 10.8 65 6.43 4.5 13 32 1012.8 2.8 15.1 23.3 32.6 85.2 73.6 251.2
08/05 08:20 10.5 66 6.4 4.4 17 22 1012.6 2.8 15.0 23.3 32.6 85.2 73.5 250.8
08/05 08:10 10.4 67 6.46 4.5 30 35 1012.3 2.8 15.2 23.4 32.9 85.9 74.3 253.7
08/05 08:00 10.1 70 6.62 4.9 13 41 1012.2 2.8 15.5 23.7 33.6 87.9 76.7 261.8
08/05 07:50 10 71 6.67 5 13 15 1012.1 2.8 15.6 23.8 33.8 88.5 77.4 264.4
08/05 07:40 9.8 72 6.68 5 13 15 1011.8 2.8 15.7 23.9 34.0 88.8 77.7 265.5
08/05 07:30 10.2 69 6.57 4.8 22 35 1011.6 2.8 15.4 23.6 33.4 87.2 75.9 259.1
08/05 07:20 10.2 68 6.47 4.6 11 19 1011.6 2.8 15.2 23.4 33.0 86.2 74.6 254.6
08/05 07:10 10.3 67 6.42 4.5 22 26 1011.3 2.8 15.1 23.3 32.7 85.5 73.8 252.0
08/05 07:00 10.1 68 6.43 4.5 17 32 1011.3 2.8 15.1 23.4 32.8 85.9 74.2 253.1
08/05 06:50 9.8 72 6.68 5 17 24 1011 2.8 15.7 23.8 33.9 88.8 77.6 265.3
08/05 06:40 9.6 75 6.87 5.4 7 7 1011.1 2.8 16.1 24.2 34.8 91.0 80.3 274.6
08/05 06:30 9.5 77 7.01 5.7 15 24 1010.8 2.8 16.4 24.4 35.4 92.6 82.2 281.4
08/05 06:20 9.5 78 7.1 5.9 17 24 1010.7 2.8 16.6 24.6 35.7 93.5 83.4 285.5
08/05 06:10 9.6 76 6.96 5.6 15 19 1010.6 2.8 16.3 24.3 35.1 91.9 81.5 278.7
08/05 06:00 9.8 74 6.87 5.4 11 24 1010.4 2.8 16.1 24.1 34.6 90.7 80.1 273.8
08/05 05:50 9.8 74 6.87 5.4 15 17 1010 2.8 16.1 24.1 34.6 90.7 80.0 273.7
08/05 05:40 10 73 6.86 5.4 9 11 1009.9 2.8 16.0 24.0 34.5 90.3 79.7 272.5
08/05 05:30 9.8 74 6.87 5.4 9 17 1009.9 2.8 16.1 24.1 34.6 90.7 80.0 273.7
08/05 05:20 9.9 73 6.82 5.3 13 17 1009.6 2.8 16.0 24.0 34.4 90.0 79.3 271.0
08/05 05:10 10.2 72 6.85 5.4 11 15 1009.5 2.8 16.0 24.0 34.4 89.9 79.3 271.3
08/05 05:00 10.2 71 6.76 5.2 11 17 1009.2 2.8 15.8 23.8 34.0 89.0 78.2 267.1
08/05 04:50 10.3 70 6.71 5.1 15 17 1009 2.8 15.7 23.7 33.7 88.3 77.4 264.5
08/05 04:40 10.3 69 6.61 4.9 17 20 1008.7 2.8 15.5 23.5 33.3 87.3 76.1 259.9
08/05 04:30 10.3 70 6.71 5.1 15 22 1008.5 2.8 15.7 23.7 33.7 88.3 77.4 264.4
08/05 04:20 10.4 69 6.65 5 19 28 1008.3 2.8 15.6 23.5 33.4 87.5 76.5 261.3
08/05 04:10 10.6 68 6.64 4.9 22 30 1008 2.8 15.5 23.5 33.3 87.2 76.1 260.1
08/05 04:00 10.6 67 6.54 4.7 20 33 1007.8 2.8 15.3 23.3 32.9 86.1 74.9 255.6
08/05 03:50 10.7 66 6.48 4.6 13 19 1007.6 2.8 15.2 23.2 32.6 85.4 74.0 252.6
08/05 03:40 10.7 67 6.58 4.8 19 22 1007.5 2.8 15.4 23.3 33.0 86.4 75.2 257.0
08/05 03:30 10.5 69 6.69 5.1 11 30 1007.5 2.8 15.7 23.6 33.5 87.7 76.8 262.6
08/05 03:20 10.7 68 6.68 5 13 17 1007.4 2.8 15.6 23.5 33.4 87.4 76.5 261.5
08/05 03:10 10.4 70 6.75 5.2 13 17 1007.3 2.8 15.8 23.7 33.8 88.5 77.7 265.6
08/05 03:00 10.9 68 6.77 5.2 19 35 1007.1 2.8 15.8 23.6 33.7 88.1 77.4 264.8
08/05 02:50 10.8 67 6.62 4.9 22 26 1007 2.8 15.5 23.3 33.1 86.6 75.6 258.4
08/05 02:40 11.1 66 6.65 5 19 24 1006.8 2.8 15.5 23.3 33.1 86.6 75.7 258.7
08/05 02:30 11.3 66 6.73 5.2 17 35 1006.7 2.8 15.7 23.4 33.3 87.2 76.5 261.6
08/05 02:20 11 69 6.91 5.5 20 26 1006.7 2.8 16.1 23.7 34.1 89.4 79.1 270.6
08/05 02:10 11.1 70 7.05 5.8 13 19 1006.5 2.8 16.4 23.9 34.6 90.7 80.8 276.5
08/05 02:00 11.3 69 7.04 5.8 20 35 1006.5 2.8 16.4 23.9 34.5 90.4 80.4 275.4
08/05 01:50 11.2 71 7.2 6.1 24 33 1006.4 2.8 16.7 24.1 35.2 92.2 82.6 282.9
08/05 01:40 10.8 73 7.22 6.2 11 13 1006.5 2.8 16.8 24.3 35.4 92.8 83.3 285.3
08/05 01:30 11.2 72 7.3 6.3 9 20 1006.3 2.8 16.9 24.3 35.6 93.2 83.9 287.4
08/05 01:20 11.7 69 7.22 6.2 15 20 1006.2 2.8 16.7 24.0 35.0 91.8 82.3 282.0
08/05 01:10 11.7 67 7.01 5.8 17 26 1006 2.8 16.3 23.7 34.2 89.6 79.6 272.5
08/05 01:00 11.8 66 6.95 5.7 20 33 1005.7 2.8 16.2 23.6 33.9 88.8 78.7 269.4
08/05 00:50 11.6 67 6.96 5.7 13 19 1005.7 2.8 16.2 23.6 34.0 89.1 79.1 270.6
08/05 00:40 11.7 69 7.22 6.2 11 19 1005.5 2.8 16.7 24.0 35.0 91.7 82.3 281.8
08/05 00:30 11.8 68 7.16 6.1 28 48 1005.3 2.8 16.6 23.9 34.7 90.9 81.4 278.7
08/05 00:20 11.5 69 7.13 6 30 33 1005.2 2.8 16.6 23.9 34.7 91.0 81.3 278.4
08/05 00:10 11.4 71 7.29 6.3 20 26 1005.1 2.8 16.9 24.2 35.4 92.7 83.5 286.0
08/05 00:00 11.6 70 7.28 6.3 32 59 1004.8 2.8 16.9 24.1 35.2 92.4 83.1 284.7
07/05 23:50 11.4 72 7.39 6.5 24 32 1004.8 2.8 17.1 24.3 35.8 93.8 84.7 290.4
07/05 23:40 11.7 73 7.64 7 22 30 1005.1 2.8 17.6 24.6 36.6 96.1 87.7 300.8
07/05 23:30 11 81 8.11 7.9 15 28 1005.2 2.8 18.7 25.6 38.8 102.0 94.7 325.3
07/05 23:20 10.5 84 8.15 7.9 13 17 1005.1 2.6 18.8 25.8 39.3 103.1 95.9 329.3
07/05 23:10 9.2 87 7.77 7.2 13 17 1005.4 2.6 18.0 25.6 38.3 100.6 92.3 316.7
07/05 23:00 9.1 87 7.72 7.1 7 11 1005.5 2.6 17.9 25.5 38.2 100.2 91.8 314.8
07/05 22:50 9.3 86 7.73 7.1 9 11 1005.3 2.6 17.9 25.5 38.1 100.1 91.7 314.4
07/05 22:40 9 88 7.76 7.1 9 13 1005.2 2.4 18.0 25.6 38.4 100.8 92.4 317.0
07/05 22:30 8.6 88 7.56 6.7 13 19 1005.6 2.2 17.6 25.4 37.8 99.1 90.2 309.2
07/05 22:20 8.4 88 7.47 6.5 7 7 1005.3 2 17.4 25.3 37.5 98.3 89.2 305.7
07/05 22:10 8.4 89 7.55 6.7 11 13 1005.5 2 17.6 25.4 37.8 99.2 90.3 309.5
07/05 22:00 8.2 88 7.37 6.3 17 26 1005.4 2 17.2 25.2 37.2 97.5 88.1 301.7
07/05 21:50 8.3 86 7.25 6.1 20 26 1005.5 1.6 16.9 25.0 36.6 96.1 86.4 295.7
07/05 21:40 8.5 84 7.17 6 13 19 1005.4 1.2 16.8 24.8 36.2 95.0 85.1 291.1
07/05 21:30 8.4 82 6.96 5.5 20 33 1005.6 0.6 16.3 24.5 35.4 92.8 82.4 281.8
07/05 21:20 8.3 82 6.91 5.4 19 24 1005.1 0.6 16.2 24.4 35.2 92.4 81.8 279.7
07/05 21:10 8.5 81 6.92 5.4 9 9 1005.4 0.4 16.2 24.4 35.2 92.3 81.7 279.5
07/05 21:00 8.5 79 6.75 5.1 15 35 1005.3 0 15.9 24.1 34.5 90.4 79.5 271.6
07/05 20:50 8.5 78 6.66 4.9 28 35 1005 0 15.7 23.9 34.2 89.4 78.3 267.4
07/05 20:40 8.5 76 6.49 4.5 13 20 1004.9 0 15.3 23.7 33.5 87.6 76.0 259.6
07/05 20:30 8.5 75 6.41 4.3 22 39 1005 0 15.1 23.5 33.2 86.8 75.0 256.0
07/05 20:20 8.6 74 6.36 4.2 28 39 1004.6 0 15.0 23.4 32.9 86.1 74.2 253.3
07/05 20:10 8.1 77 6.41 4.3 28 35 1004.9 0 15.1 23.6 33.3 87.2 75.4 257.2
07/05 20:00 7.8 77 6.29 4 35 54 1004.5 0 14.9 23.5 33.0 86.3 74.1 252.6

Last Refresh: 08-May-2026 12:08:16

Bureau of Meteorology